Time;durP1;ratioP1;P1;durP2;ratioP2;P2;SDS_P1;SDS_P2;PMS_P1;PMS_P2;Temp;Humidity;BMP_temperature;BMP_pressure;BME280_temperature;BME280_humidity;BME280_pressure;Samples;Min_cycle;Max_cycle;Signal;HPM_P1;HPM_P2
2022/10/04 00:03:35;;;;;;;8.00;4.20;;;;;;;11.74;100.00;100077.81;657503;1279;140174;-83
2022/10/04 00:18:44;;;;;;;4.20;2.80;;;;;;;11.82;100.00;100083.02;657219;1279;139190;-84
2022/10/04 00:33:56;;;;;;;6.20;2.70;;;;;;;11.86;100.00;100079.58;657394;1280;140195;-83
2022/10/04 00:49:05;;;;;;;5.60;3.30;;;;;;;11.88;100.00;100074.86;657405;1280;139107;-83
2022/10/04 01:04:28;;;;;;;10.50;3.30;;;;;;;11.89;100.00;100076.02;659876;1280;139635;-83
2022/10/04 01:19:34;;;;;;;6.50;3.30;;;;;;;11.80;100.00;100065.62;658371;1281;140018;-83
2022/10/04 01:34:39;;;;;;;7.10;3.50;;;;;;;11.54;100.00;100056.59;658011;1280;140071;-83
2022/10/04 01:49:45;;;;;;;9.80;3.50;;;;;;;11.38;100.00;100065.41;658031;1279;139439;-83
2022/10/04 02:04:54;;;;;;;5.80;2.90;;;;;;;11.30;100.00;100072.71;658215;1279;139445;-83
2022/10/04 02:20:02;;;;;;;5.40;2.60;;;;;;;11.33;100.00;100069.75;657569;1279;139881;-83
2022/10/04 02:35:06;;;;;;;6.20;2.40;;;;;;;11.32;100.00;100075.67;657161;1279;139546;-83
2022/10/04 02:50:23;;;;;;;3.60;2.20;;;;;;;11.20;100.00;100084.30;658004;1279;139602;-83
2022/10/04 03:05:27;;;;;;;7.70;2.90;;;;;;;11.24;100.00;100090.77;657839;1279;139330;-84
2022/10/04 03:20:37;;;;;;;3.90;2.20;;;;;;;11.33;100.00;100093.09;658621;1279;139818;-85
2022/10/04 03:35:40;;;;;;;5.50;2.30;;;;;;;11.34;100.00;100096.80;658615;1279;139279;-85
2022/10/04 03:50:48;;;;;;;5.40;2.40;;;;;;;11.26;100.00;100100.72;658462;1279;139093;-82
2022/10/04 04:05:56;;;;;;;7.60;3.20;;;;;;;11.16;100.00;100110.76;656983;1279;139962;-84
2022/10/04 04:21:02;;;;;;;4.70;3.00;;;;;;;11.09;100.00;100114.73;657697;1279;139731;-84
2022/10/04 04:36:09;;;;;;;6.90;3.80;;;;;;;11.13;100.00;100125.71;659825;1279;140171;-84
2022/10/04 04:51:23;;;;;;;6.50;3.20;;;;;;;11.14;100.00;100141.52;661210;1279;139840;-84
2022/10/04 05:06:33;;;;;;;6.40;3.00;;;;;;;11.33;100.00;100153.60;659892;1277;139989;-84
2022/10/04 05:21:37;;;;;;;11.00;3.80;;;;;;;11.40;100.00;100171.38;656973;1279;139512;-85
2022/10/04 05:37:07;;;;;;;7.00;3.50;;;;;;;11.37;100.00;100192.12;657272;1279;139620;-85
2022/10/04 05:52:23;;;;;;;6.80;4.10;;;;;;;11.42;100.00;100211.45;656129;1277;1078307;-84
2022/10/04 06:07:41;;;;;;;8.50;6.40;;;;;;;11.61;100.00;100226.53;657991;1279;139748;-83
2022/10/04 06:22:46;;;;;;;8.10;4.70;;;;;;;11.99;100.00;100247.21;658893;1277;139402;-83
2022/10/04 06:37:58;;;;;;;9.30;4.60;;;;;;;12.33;100.00;100254.45;658785;1279;139474;-83
2022/10/04 06:53:08;;;;;;;7.60;3.40;;;;;;;12.81;100.00;100266.70;659031;1279;139162;-83
2022/10/04 07:08:32;;;;;;;5.90;3.20;;;;;;;12.92;100.00;100284.08;657940;1279;139198;-83
2022/10/04 07:23:50;;;;;;;6.60;3.70;;;;;;;13.19;100.00;100293.89;659153;1277;139607;-84
2022/10/04 07:39:05;;;;;;;6.00;3.20;;;;;;;13.42;100.00;100309.00;658739;1278;139137;-83
2022/10/04 07:54:21;;;;;;;5.30;2.80;;;;;;;13.94;100.00;100325.27;659671;1279;139793;-84
2022/10/04 08:09:37;;;;;;;4.40;3.00;;;;;;;13.74;100.00;100343.23;657451;1277;139199;-84
2022/10/04 08:25:02;;;;;;;5.30;3.20;;;;;;;13.79;100.00;100367.06;656901;1279;139530;-84
2022/10/04 08:40:46;;;;;;;4.40;2.80;;;;;;;14.22;100.00;100375.41;658849;1279;139549;-83
2022/10/04 08:56:17;;;;;;;2.90;2.10;;;;;;;14.83;100.00;100380.58;657459;1279;139697;-84
2022/10/04 09:11:48;;;;;;;4.30;2.20;;;;;;;15.24;100.00;100391.66;656625;1279;139359;-85
2022/10/04 09:27:19;;;;;;;3.00;2.70;;;;;;;15.77;99.37;100396.38;661406;1277;139435;-85
2022/10/04 09:43:06;;;;;;;42.00;28.40;;;;;;;16.11;97.31;100415.13;659919;1279;139297;-84
2022/10/04 09:58:35;;;;;;;13.40;10.30;;;;;;;15.99;93.50;100435.52;658179;1279;140482;-84
2022/10/04 10:14:21;;;;;;;5.10;3.50;;;;;;;16.13;92.67;100452.96;657541;1279;139736;-83
2022/10/04 10:29:39;;;;;;;7.30;6.60;;;;;;;17.45;86.74;100458.23;659596;1279;139842;-84
2022/10/04 10:45:04;;;;;;;6.60;3.30;;;;;;;17.37;81.64;100469.07;660610;1278;139421;-84
2022/10/04 11:00:29;;;;;;;6.30;3.60;;;;;;;16.63;83.38;100485.17;663013;1279;140538;-85
2022/10/04 11:15:46;;;;;;;8.30;6.20;;;;;;;16.94;83.13;100502.95;657605;1279;139055;-84
2022/10/04 11:31:02;;;;;;;6.70;3.30;;;;;;;17.39;79.56;100517.48;657633;1279;139353;-85
2022/10/04 11:46:38;;;;;;;4.90;2.90;;;;;;;17.83;77.97;100532.82;658977;1277;138927;-85
2022/10/04 12:02:23;;;;;;;4.50;2.20;;;;;;;17.65;77.42;100548.55;659425;1277;139242;-84
2022/10/04 12:17:42;;;;;;;2.10;1.10;;;;;;;18.27;74.65;100554.95;660889;1277;139698;-85
2022/10/04 12:32:57;;;;;;;3.10;1.40;;;;;;;18.80;70.69;100552.50;666399;1277;139595;-85
2022/10/04 12:48:21;;;;;;;3.10;1.50;;;;;;;18.35;68.46;100553.42;658589;1279;139095;-83
2022/10/04 13:04:03;;;;;;;5.10;2.80;;;;;;;18.78;69.03;100563.37;664083;1279;139351;-84
2022/10/04 13:19:28;;;;;;;8.00;3.60;;;;;;;18.99;66.76;100577.33;658801;1279;142694;-84
2022/10/04 13:34:44;;;;;;;5.20;1.40;;;;;;;22.25;64.81;100587.09;658077;1277;139225;-84
2022/10/04 13:50:25;;;;;;;4.00;1.70;;;;;;;22.31;58.50;100601.11;660426;1279;139794;-83
2022/10/04 14:06:04;;;;;;;3.50;1.60;;;;;;;21.82;58.87;100602.98;659938;1277;138716;-84
2022/10/04 14:21:38;;;;;;;3.30;1.80;;;;;;;19.72;60.71;100604.23;662384;1279;140721;-84
2022/10/04 14:37:22;;;;;;;7.40;4.10;;;;;;;21.68;62.85;100609.36;659876;1279;139126;-85
2022/10/04 14:52:54;;;;;;;3.90;2.00;;;;;;;32.27;51.29;100617.00;667205;1279;138665;-85
2022/10/04 15:08:19;;;;;;;7.10;3.80;;;;;;;31.65;44.99;100614.94;661409;1278;138578;-85
2022/10/04 15:23:30;;;;;;;85.20;49.30;;;;;;;23.53;51.19;100621.87;658559;1279;139409;-84
2022/10/04 15:39:03;;;;;;;37.60;19.80;;;;;;;22.05;54.93;100637.44;658473;1279;139063;-85
2022/10/04 15:54:41;;;;;;;51.20;30.60;;;;;;;24.78;52.27;100656.98;657998;1279;139151;-84
2022/10/04 16:10:13;;;;;;;79.80;44.80;;;;;;;22.45;53.78;100662.05;660143;1279;138590;-82
2022/10/04 16:25:26;;;;;;;117.80;57.40;;;;;;;18.87;57.82;100665.94;658278;1279;139133;-83
2022/10/04 16:40:51;;;;;;;40.80;19.80;;;;;;;17.35;61.86;100668.25;657032;1279;138917;-83
2022/10/04 16:56:04;;;;;;;45.70;24.40;;;;;;;16.22;65.15;100684.04;658062;1279;138727;-83
2022/10/04 17:11:38;;;;;;;48.30;27.00;;;;;;;15.21;68.50;100696.58;657434;1278;140481;-83
2022/10/04 17:27:07;;;;;;;48.90;24.00;;;;;;;14.61;71.20;100706.59;657822;1279;138526;-84
2022/10/04 17:42:59;;;;;;;42.00;21.20;;;;;;;13.89;73.63;100720.10;659707;1277;139830;-82
2022/10/04 17:58:16;;;;;;;74.40;33.00;;;;;;;13.20;76.22;100731.60;657938;1279;1079321;-83
2022/10/04 18:13:45;;;;;;;135.10;66.00;;;;;;;12.84;78.18;100736.09;659507;1277;140872;-83
2022/10/04 18:28:54;;;;;;;45.40;27.10;;;;;;;12.61;79.91;100749.52;659273;1279;139874;-83
2022/10/04 18:43:58;;;;;;;39.30;21.70;;;;;;;12.22;81.34;100755.42;660421;1278;139849;-85
2022/10/04 19:14:45;;;;;;;50.80;24.20;;;;;;;11.71;83.57;100777.66;662484;1279;140208;-83
2022/10/04 19:29:52;;;;;;;40.10;20.60;;;;;;;11.43;84.39;100798.23;658924;1279;139697;-84
2022/10/04 19:45:17;;;;;;;33.80;14.00;;;;;;;11.13;85.19;100802.58;658460;1279;139769;-85
2022/10/04 20:00:23;;;;;;;29.70;16.40;;;;;;;10.96;86.24;100802.77;659100;1277;140555;-83
2022/10/04 20:15:33;;;;;;;25.70;12.40;;;;;;;10.74;86.67;100805.59;659805;1279;140788;-84
2022/10/04 20:30:50;;;;;;;31.40;14.90;;;;;;;10.83;88.79;100813.93;658990;1279;140364;-83
2022/10/04 20:45:55;;;;;;;42.10;25.20;;;;;;;10.93;89.67;100806.15;659274;1276;140520;-84
2022/10/04 21:01:20;;;;;;;37.90;18.80;;;;;;;10.71;92.36;100815.81;659308;1276;140513;-84
2022/10/04 21:16:36;;;;;;;34.00;17.00;;;;;;;10.68;93.51;100815.14;658617;1276;140841;-83
2022/10/04 21:31:41;;;;;;;26.90;14.60;;;;;;;10.69;94.24;100834.67;658256;1276;139600;-83
2022/10/04 21:46:44;;;;;;;30.00;15.60;;;;;;;10.57;97.60;100848.39;658159;1276;139380;-84
2022/10/04 22:01:48;;;;;;;30.60;14.90;;;;;;;10.41;99.36;100852.55;658909;1276;140813;-83
2022/10/04 22:16:51;;;;;;;23.30;13.90;;;;;;;10.42;99.95;100852.36;659240;1276;139901;-84
2022/10/04 22:31:54;;;;;;;17.20;9.10;;;;;;;10.62;100.00;100837.14;658549;1276;139817;-84
2022/10/04 22:47:00;;;;;;;18.10;10.60;;;;;;;10.70;100.00;100827.41;658564;1276;140647;-83
2022/10/04 23:02:14;;;;;;;28.80;14.10;;;;;;;10.59;100.00;100851.36;658570;1276;139850;-82
2022/10/04 23:17:24;;;;;;;20.90;12.20;;;;;;;10.39;100.00;100826.88;658952;1276;140059;-83
2022/10/04 23:32:27;;;;;;;23.00;11.60;;;;;;;10.57;100.00;100824.27;658449;1276;139706;-84
2022/10/04 23:47:33;;;;;;;19.00;9.20;;;;;;;10.90;100.00;100807.25;658382;1276;140591;-83
